createdAt,value
2018-07-08T00:01:52.419Z,2.90
2018-07-08T00:04:21.637Z,3.27
2018-07-08T00:06:54.960Z,3.00
2018-07-08T00:09:24.160Z,2.80
2018-07-08T00:11:53.457Z,3.20
2018-07-08T00:14:22.648Z,3.00
2018-07-08T00:16:51.846Z,3.30
2018-07-08T00:19:21.056Z,3.43
2018-07-08T00:21:50.281Z,3.33
2018-07-08T00:24:19.478Z,3.27
2018-07-08T00:26:48.678Z,3.37
2018-07-08T00:29:17.875Z,3.40
2018-07-08T00:31:47.119Z,3.50
2018-07-08T00:34:16.312Z,3.63
2018-07-08T00:36:45.509Z,3.80
2018-07-08T00:39:14.709Z,3.57
2018-07-08T00:41:43.980Z,3.67
2018-07-08T00:44:13.241Z,3.80
2018-07-08T00:46:42.440Z,3.83
2018-07-08T00:49:11.896Z,4.03
2018-07-08T00:51:41.179Z,3.53
2018-07-08T00:54:10.371Z,3.77
2018-07-08T00:56:39.568Z,3.43
2018-07-08T00:59:08.756Z,3.60
2018-07-08T01:01:38.032Z,3.70
2018-07-08T01:04:07.290Z,3.90
2018-07-08T01:06:36.459Z,3.97
2018-07-08T01:09:06.516Z,4.07
2018-07-08T01:11:35.781Z,3.70
2018-07-08T01:14:05.084Z,4.00
2018-07-08T01:16:34.348Z,4.50
2018-07-08T01:19:03.553Z,3.97
2018-07-08T01:21:32.773Z,4.30
2018-07-08T01:24:02.020Z,3.67
2018-07-08T01:26:31.236Z,3.70
2018-07-08T01:29:00.414Z,3.77
2018-07-08T01:31:29.667Z,4.17
2018-07-08T01:33:58.912Z,4.03
2018-07-08T01:36:28.132Z,4.40
2018-07-08T01:38:57.330Z,4.60
2018-07-08T01:41:26.560Z,4.43
2018-07-08T01:43:55.770Z,4.37
2018-07-08T01:46:25.171Z,4.20
2018-07-08T01:48:54.463Z,4.40
2018-07-08T01:51:23.773Z,4.60
2018-07-08T01:53:53.165Z,4.70
2018-07-08T01:56:22.375Z,4.83
2018-07-08T01:58:51.102Z,4.90
2018-07-08T02:01:20.392Z,4.77
2018-07-08T02:03:49.623Z,4.50
2018-07-08T02:06:18.862Z,4.50
2018-07-08T02:08:48.256Z,4.23
2018-07-08T02:11:17.552Z,4.37
2018-07-08T02:13:46.744Z,4.63
2018-07-08T02:16:15.956Z,4.80
2018-07-08T02:18:45.643Z,4.97
2018-07-08T02:21:15.025Z,4.97
2018-07-08T02:23:44.257Z,5.20
2018-07-08T02:26:13.457Z,5.07
2018-07-08T02:28:42.657Z,5.03
2018-07-08T02:31:11.856Z,4.87
2018-07-08T02:33:41.057Z,4.23
2018-07-08T02:36:10.243Z,5.17
2018-07-08T02:38:39.440Z,4.67
2018-07-08T02:41:08.699Z,4.43
2018-07-08T02:43:37.897Z,4.43
2018-07-08T02:46:07.289Z,4.30
2018-07-08T02:48:36.487Z,4.43
2018-07-08T02:51:05.891Z,4.70
2018-07-08T02:53:35.228Z,4.70
2018-07-08T02:56:04.418Z,4.30
2018-07-08T02:58:33.617Z,4.37
2018-07-08T03:01:02.852Z,4.30
2018-07-08T03:03:32.048Z,4.30
2018-07-08T03:06:01.249Z,4.93
2018-07-08T03:08:30.437Z,4.77
2018-07-08T03:10:59.637Z,4.63
2018-07-08T03:13:28.833Z,4.23
2018-07-08T03:15:58.036Z,4.60
2018-07-08T03:18:27.234Z,4.47
2018-07-08T03:20:56.432Z,4.07
2018-07-08T03:23:26.086Z,4.40
2018-07-08T03:25:55.364Z,4.50
2018-07-08T03:28:24.537Z,4.57
2018-07-08T03:30:53.814Z,4.70
2018-07-08T03:33:23.262Z,4.67
2018-07-08T03:35:52.483Z,5.10
2018-07-08T03:38:21.916Z,4.90
2018-07-08T03:40:51.107Z,4.83
2018-07-08T03:43:20.513Z,4.53
2018-07-08T03:45:49.708Z,4.57
2018-07-08T03:48:18.905Z,4.30
2018-07-08T03:50:48.079Z,4.80
2018-07-08T03:53:17.259Z,4.87
2018-07-08T03:55:46.677Z,4.90
2018-07-08T03:58:16.004Z,4.73
2018-07-08T04:00:45.177Z,4.57
2018-07-08T04:03:14.336Z,4.87
2018-07-08T04:05:43.536Z,4.57
2018-07-08T04:08:12.741Z,4.63
2018-07-08T04:10:41.937Z,4.80
2018-07-08T04:13:11.135Z,4.40
2018-07-08T04:15:40.398Z,4.87
2018-07-08T04:18:10.213Z,5.07
2018-07-08T04:20:40.227Z,4.90
2018-07-08T04:23:09.728Z,4.80
2018-07-08T04:25:39.082Z,5.00
2018-07-08T04:28:08.812Z,4.50
2018-07-08T04:30:38.244Z,5.13
2018-07-08T04:33:07.606Z,4.33
2018-07-08T04:35:37.672Z,4.70
2018-07-08T04:38:07.780Z,5.27
2018-07-08T04:40:37.625Z,5.07
2018-07-08T04:43:07.557Z,4.93
2018-07-08T04:45:36.843Z,4.90
2018-07-08T04:48:06.117Z,4.93
2018-07-08T04:50:35.368Z,4.73
2018-07-08T04:53:04.769Z,4.90
2018-07-08T04:55:34.067Z,5.00
2018-07-08T04:58:03.140Z,4.73
2018-07-08T05:00:32.458Z,5.27
2018-07-08T05:03:01.924Z,4.93
2018-07-08T05:05:31.231Z,5.50
2018-07-08T05:08:00.541Z,5.07
2018-07-08T05:10:29.825Z,4.67
2018-07-08T05:12:59.178Z,5.00
2018-07-08T05:15:28.449Z,5.03
2018-07-08T05:17:57.744Z,5.10
2018-07-08T05:20:27.095Z,5.50
2018-07-08T05:22:56.453Z,5.23
2018-07-08T05:25:25.801Z,5.40
2018-07-08T05:27:55.180Z,5.70
2018-07-08T05:30:24.470Z,4.83
2018-07-08T05:32:54.172Z,4.93
2018-07-08T05:35:23.550Z,4.97
2018-07-08T05:37:52.907Z,5.47
2018-07-08T05:40:22.212Z,5.20
2018-07-08T05:42:51.572Z,4.83
2018-07-08T05:45:20.901Z,4.47
2018-07-08T05:47:50.196Z,4.70
2018-07-08T05:50:19.516Z,5.17
2018-07-08T05:52:48.891Z,4.50
2018-07-08T05:55:18.273Z,4.73
2018-07-08T05:57:47.537Z,4.97
2018-07-08T06:00:16.856Z,4.03
2018-07-08T06:02:46.200Z,4.80
2018-07-08T06:05:15.475Z,4.47
2018-07-08T06:07:44.861Z,4.43
2018-07-08T06:10:14.164Z,4.40
2018-07-08T06:12:43.497Z,5.00
2018-07-08T06:15:12.843Z,4.50
2018-07-08T06:17:42.128Z,4.60
2018-07-08T06:20:12.242Z,4.83
2018-07-08T06:22:41.655Z,4.70
2018-07-08T06:25:10.958Z,4.10
2018-07-08T06:27:40.234Z,4.77
2018-07-08T06:30:09.585Z,4.47
2018-07-08T06:32:38.964Z,4.40
2018-07-08T06:35:09.528Z,4.67
2018-07-08T06:37:38.850Z,4.20
2018-07-08T06:40:08.459Z,4.33
2018-07-08T06:42:37.956Z,4.33
2018-07-08T06:45:07.266Z,3.73
2018-07-08T06:47:43.257Z,4.23
2018-07-08T06:50:12.558Z,4.40
2018-07-08T06:52:41.936Z,4.10
2018-07-08T06:55:11.268Z,4.70
2018-07-08T06:57:40.637Z,4.30
2018-07-08T07:00:09.945Z,4.00
2018-07-08T07:02:38.822Z,4.33
2018-07-08T07:05:07.586Z,3.90
2018-07-08T07:07:36.949Z,4.60
2018-07-08T07:10:06.998Z,4.60
2018-07-08T07:12:36.492Z,4.53
2018-07-08T07:15:06.340Z,4.10
2018-07-08T07:17:35.686Z,3.97
2018-07-08T07:20:05.041Z,3.87
2018-07-08T07:22:34.460Z,4.20
2018-07-08T07:25:03.822Z,3.80
2018-07-08T07:27:33.072Z,4.13
2018-07-08T07:30:02.339Z,3.80
2018-07-08T07:32:31.649Z,4.00
2018-07-08T07:35:00.942Z,4.20
2018-07-08T07:37:30.351Z,4.07
2018-07-08T07:39:59.552Z,3.63
2018-07-08T07:42:29.301Z,3.83
2018-07-08T07:44:58.728Z,4.40
2018-07-08T07:47:28.000Z,4.43
2018-07-08T07:49:57.236Z,4.07
2018-07-08T07:52:26.527Z,4.17
2018-07-08T07:54:55.829Z,3.80
2018-07-08T07:57:25.147Z,4.20
2018-07-08T07:59:54.449Z,4.33
2018-07-08T08:02:26.506Z,4.30
2018-07-08T08:04:56.660Z,4.30
2018-07-08T08:07:27.267Z,4.03
2018-07-08T08:09:57.545Z,4.20
2018-07-08T08:12:27.300Z,4.00
2018-07-08T08:14:56.929Z,3.77
2018-07-08T08:17:26.929Z,4.20
2018-07-08T08:19:56.183Z,3.63
2018-07-08T08:22:25.569Z,3.80
2018-07-08T08:24:54.831Z,4.30
2018-07-08T08:27:24.137Z,3.90
2018-07-08T08:29:53.489Z,4.60
2018-07-08T08:32:22.908Z,6.43
2018-07-08T08:35:23.371Z,4.87
2018-07-08T08:37:55.459Z,5.87
2018-07-08T08:40:26.329Z,6.33
2018-07-08T08:42:56.551Z,9.63
2018-07-08T08:45:27.917Z,11.43
2018-07-08T08:47:58.062Z,11.37
2018-07-08T08:50:27.402Z,11.70
2018-07-08T08:52:56.845Z,12.10
2018-07-08T08:55:26.337Z,11.87
2018-07-08T08:57:55.647Z,10.83
2018-07-08T09:00:24.924Z,12.70
2018-07-08T09:02:54.373Z,11.87
2018-07-08T09:05:23.766Z,12.27
2018-07-08T09:07:53.216Z,11.67
2018-07-08T09:10:22.539Z,11.40
2018-07-08T09:12:51.860Z,10.80
2018-07-08T09:15:21.544Z,10.70
2018-07-08T09:17:50.873Z,9.93
2018-07-08T09:20:20.352Z,10.27
2018-07-08T09:22:49.856Z,10.67
2018-07-08T09:25:19.234Z,10.47
2018-07-08T09:27:48.599Z,9.30
2018-07-08T09:30:17.913Z,9.00
2018-07-08T09:32:47.297Z,9.13
2018-07-08T09:35:16.709Z,9.70
2018-07-08T09:37:45.575Z,8.63
2018-07-08T09:40:15.232Z,8.53
2018-07-08T09:42:44.744Z,8.10
2018-07-08T09:45:14.149Z,7.80
2018-07-08T09:47:43.573Z,7.90
2018-07-08T09:50:12.949Z,7.77
2018-07-08T09:52:42.666Z,7.80
2018-07-08T09:55:12.001Z,7.93
2018-07-08T09:57:41.415Z,7.20
2018-07-08T10:00:10.801Z,7.20
2018-07-08T10:02:40.150Z,7.00
2018-07-08T10:05:09.472Z,7.70
2018-07-08T10:07:38.824Z,6.93
2018-07-08T10:10:08.145Z,6.90
2018-07-08T10:12:37.591Z,6.73
2018-07-08T10:15:06.933Z,7.27
2018-07-08T10:17:36.370Z,7.03
2018-07-08T10:20:06.841Z,7.50
2018-07-08T10:22:36.274Z,7.40
2018-07-08T10:25:05.622Z,6.80
2018-07-08T10:27:58.590Z,6.90
2018-07-08T10:30:28.008Z,6.83
2018-07-08T10:32:56.812Z,6.80
2018-07-08T10:35:36.995Z,6.80
2018-07-08T10:38:06.625Z,6.07
2018-07-08T10:40:35.912Z,6.23
2018-07-08T10:43:05.331Z,6.80
2018-07-08T10:45:34.642Z,7.37
2018-07-08T10:48:04.014Z,7.63
2018-07-08T10:50:34.298Z,7.00
2018-07-08T10:53:03.708Z,7.10
2018-07-08T10:55:33.233Z,7.20
2018-07-08T10:58:02.529Z,6.93
2018-07-08T11:00:31.902Z,6.93
2018-07-08T11:03:01.299Z,6.90
2018-07-08T11:05:30.707Z,6.90
2018-07-08T11:08:00.195Z,6.83
2018-07-08T11:10:28.935Z,6.53
2018-07-08T11:12:58.437Z,6.80
2018-07-08T11:15:27.806Z,6.57
2018-07-08T11:17:57.156Z,6.90
2018-07-08T11:20:26.610Z,7.60
2018-07-08T11:22:56.417Z,6.50
2018-07-08T11:25:25.683Z,7.03
2018-07-08T11:27:55.008Z,7.37
2018-07-08T11:30:24.348Z,6.70
2018-07-08T11:32:53.692Z,6.83
2018-07-08T11:35:22.452Z,6.50
2018-07-08T11:37:51.775Z,6.43
2018-07-08T11:40:20.598Z,7.17
2018-07-08T11:42:50.044Z,5.80
2018-07-08T11:45:20.158Z,6.20
2018-07-08T11:47:49.500Z,6.57
2018-07-08T11:50:18.752Z,6.63
2018-07-08T11:52:48.140Z,6.10
2018-07-08T11:55:17.845Z,6.37
2018-07-08T11:57:47.331Z,5.93
2018-07-08T12:00:16.838Z,6.00
2018-07-08T12:02:46.196Z,5.70
2018-07-08T12:05:15.469Z,6.50
2018-07-08T12:07:44.768Z,5.80
2018-07-08T12:10:14.103Z,5.57
2018-07-08T12:12:43.536Z,6.30
2018-07-08T12:15:12.989Z,6.07
2018-07-08T12:17:42.375Z,5.80
2018-07-08T12:20:11.774Z,5.70
2018-07-08T12:22:41.226Z,5.93
2018-07-08T12:25:10.564Z,6.27
2018-07-08T12:27:39.955Z,5.87
2018-07-08T12:30:09.302Z,5.97
2018-07-08T12:32:38.800Z,6.10
2018-07-08T12:35:08.051Z,5.23
2018-07-08T12:37:37.353Z,6.00
2018-07-08T12:40:06.708Z,5.43
2018-07-08T12:42:36.101Z,5.80
2018-07-08T12:45:05.587Z,5.37
2018-07-08T12:47:35.653Z,5.77
2018-07-08T12:50:05.784Z,5.73
2018-07-08T12:52:35.235Z,5.73
2018-07-08T12:55:04.534Z,5.90
2018-07-08T12:57:34.585Z,5.63
2018-07-08T13:00:04.291Z,5.47
2018-07-08T13:02:34.020Z,5.43
2018-07-08T13:05:03.561Z,5.50
2018-07-08T13:07:33.408Z,5.57
2018-07-08T13:10:02.781Z,5.73
2018-07-08T13:12:32.176Z,5.30
2018-07-08T13:15:01.469Z,5.73
2018-07-08T13:17:30.895Z,5.90
2018-07-08T13:20:00.302Z,6.17
2018-07-08T13:22:29.655Z,5.70
2018-07-08T13:24:58.938Z,5.43
2018-07-08T13:27:28.573Z,6.03
2018-07-08T13:29:57.944Z,6.43
2018-07-08T13:32:28.074Z,6.20
2018-07-08T13:34:57.616Z,6.00
2018-07-08T13:37:27.485Z,5.93
2018-07-08T13:40:03.487Z,5.90
2018-07-08T13:42:33.821Z,6.20
2018-07-08T13:45:03.818Z,6.23
2018-07-08T13:47:34.013Z,6.10
2018-07-08T13:50:03.766Z,5.70
2018-07-08T13:52:33.194Z,6.10
2018-07-08T13:55:02.515Z,6.47
2018-07-08T13:57:31.771Z,5.87
2018-07-08T14:00:01.058Z,6.23
2018-07-08T14:02:30.528Z,6.20
2018-07-08T14:04:59.834Z,5.97
2018-07-08T14:07:29.440Z,5.80
2018-07-08T14:09:58.756Z,6.10
2018-07-08T14:12:28.149Z,5.73
2018-07-08T14:14:57.379Z,5.97
2018-07-08T14:17:26.632Z,5.77
2018-07-08T14:19:55.940Z,6.00
2018-07-08T14:22:26.103Z,5.73
2018-07-08T14:24:55.376Z,6.60
2018-07-08T14:27:24.647Z,5.83
2018-07-08T14:29:54.090Z,5.60
2018-07-08T14:32:23.658Z,5.70
2018-07-08T14:34:53.030Z,5.50
2018-07-08T14:37:22.330Z,5.40
2018-07-08T14:39:51.660Z,5.60
2018-07-08T14:42:21.016Z,5.90
2018-07-08T14:44:50.323Z,6.17
2018-07-08T14:47:19.633Z,5.60
2018-07-08T14:49:49.006Z,5.77
2018-07-08T14:52:18.374Z,5.70
2018-07-08T14:54:47.654Z,6.13
2018-07-08T14:57:17.070Z,5.70
2018-07-08T14:59:46.439Z,6.03
2018-07-08T15:02:15.905Z,5.60
2018-07-08T15:04:45.256Z,5.73
2018-07-08T15:07:14.963Z,5.57
2018-07-08T15:09:44.345Z,6.00
2018-07-08T15:12:15.438Z,5.53
2018-07-08T15:14:45.020Z,5.60
2018-07-08T15:17:14.333Z,5.37
2018-07-08T15:19:43.613Z,5.80
2018-07-08T15:22:12.954Z,5.43
2018-07-08T15:24:42.316Z,5.77
2018-07-08T15:27:11.614Z,5.53
2018-07-08T15:29:41.316Z,5.83
2018-07-08T15:32:10.743Z,5.40
2018-07-08T15:34:40.195Z,5.80
2018-07-08T15:37:09.532Z,5.73
2018-07-08T15:39:38.812Z,5.30
2018-07-08T15:42:08.161Z,5.73
2018-07-08T15:44:37.477Z,5.50
2018-07-08T15:47:06.956Z,5.57
2018-07-08T15:49:36.335Z,5.40
2018-07-08T15:52:05.704Z,5.63
2018-07-08T15:54:34.995Z,5.20
2018-07-08T15:57:04.305Z,5.43
2018-07-08T15:59:33.634Z,5.80
2018-07-08T16:02:03.005Z,5.60
2018-07-08T16:04:32.310Z,5.53
2018-07-08T16:07:01.706Z,5.67
2018-07-08T16:09:31.116Z,5.40
2018-07-08T16:12:02.358Z,5.60
2018-07-08T16:14:31.873Z,5.63
2018-07-08T16:17:01.477Z,5.33
2018-07-08T16:19:30.814Z,5.93
2018-07-08T16:22:02.344Z,5.53
2018-07-08T16:24:32.438Z,5.50
2018-07-08T16:27:02.013Z,5.40
2018-07-08T16:29:32.115Z,5.80
2018-07-08T16:32:02.215Z,5.73
2018-07-08T16:34:31.831Z,5.60
2018-07-08T16:37:01.685Z,5.67
2018-07-08T16:39:31.022Z,5.70
2018-07-08T16:42:00.404Z,5.63
2018-07-08T16:44:30.103Z,5.30
2018-07-08T16:46:59.532Z,5.50
2018-07-08T16:49:28.855Z,5.90
2018-07-08T16:51:58.235Z,5.70
2018-07-08T16:54:27.103Z,5.63
2018-07-08T16:56:56.499Z,5.33
2018-07-08T16:59:25.888Z,5.27
2018-07-08T17:01:55.213Z,5.43
2018-07-08T17:04:24.565Z,5.53
2018-07-08T17:06:53.921Z,5.30
2018-07-08T17:09:23.262Z,5.53
2018-07-08T17:11:52.707Z,5.30
2018-07-08T17:14:22.032Z,5.43
2018-07-08T17:16:51.808Z,5.23
2018-07-08T17:19:21.402Z,5.40
2018-07-08T17:21:50.784Z,5.70
2018-07-08T17:24:20.153Z,5.90
2018-07-08T17:26:49.476Z,6.10
2018-07-08T17:29:18.768Z,6.10
2018-07-08T17:31:48.268Z,6.00
2018-07-08T17:34:17.657Z,5.47
2018-07-08T17:36:46.925Z,5.80
2018-07-08T17:39:16.269Z,5.33
2018-07-08T17:41:45.677Z,5.83
2018-07-08T17:44:14.961Z,5.80
2018-07-08T17:46:44.287Z,6.00
2018-07-08T17:49:13.642Z,5.63
2018-07-08T17:51:43.021Z,5.53
2018-07-08T17:54:12.277Z,5.63
2018-07-08T17:56:41.863Z,5.57
2018-07-08T17:59:11.149Z,5.60
2018-07-08T18:01:40.560Z,5.80
2018-07-08T18:04:09.836Z,5.67
2018-07-08T18:06:39.101Z,5.10
2018-07-08T18:09:08.455Z,5.53
2018-07-08T18:11:37.835Z,5.10
2018-07-08T18:14:07.426Z,5.30
2018-07-08T18:16:36.686Z,5.20
2018-07-08T18:19:06.353Z,5.67
2018-07-08T18:21:35.806Z,5.60
2018-07-08T18:24:05.420Z,5.00
2018-07-08T18:26:34.740Z,5.23
2018-07-08T18:29:03.504Z,5.30
2018-07-08T18:31:32.932Z,5.17
2018-07-08T18:34:02.240Z,5.10
2018-07-08T18:36:32.235Z,5.50
2018-07-08T18:39:01.005Z,5.00
2018-07-08T18:41:30.745Z,5.10
2018-07-08T18:44:00.041Z,5.20
2018-07-08T18:46:30.447Z,5.33
2018-07-08T18:49:00.218Z,5.20
2018-07-08T18:51:30.120Z,5.20
2018-07-08T18:54:00.544Z,5.10
2018-07-08T18:56:29.973Z,5.13
2018-07-08T18:58:59.285Z,5.00
2018-07-08T19:01:28.661Z,4.83
2018-07-08T19:03:57.929Z,5.27
2018-07-08T19:06:27.196Z,5.40
2018-07-08T19:08:56.809Z,5.47
2018-07-08T19:11:26.249Z,5.20
2018-07-08T19:13:55.562Z,5.10
2018-07-08T19:16:24.961Z,5.60
2018-07-08T19:18:54.434Z,5.97
2018-07-08T19:21:23.868Z,5.00
2018-07-08T19:23:53.221Z,4.90
2018-07-08T19:26:22.651Z,5.30
2018-07-08T19:28:52.257Z,5.53
2018-07-08T19:31:21.762Z,5.50
2018-07-08T19:33:51.167Z,5.10
2018-07-08T19:36:20.458Z,4.90
2018-07-08T19:38:49.760Z,4.90
2018-07-08T19:41:19.348Z,5.07
2018-07-08T19:43:48.656Z,5.00
2018-07-08T19:46:18.020Z,4.90
2018-07-08T19:48:47.512Z,4.90
2018-07-08T19:51:17.040Z,4.40
2018-07-08T19:53:47.159Z,5.03
2018-07-08T19:56:16.573Z,4.90
2018-07-08T19:58:46.395Z,5.03
2018-07-08T20:01:15.826Z,5.20
2018-07-08T20:03:45.160Z,4.63
2018-07-08T20:06:14.576Z,4.70
2018-07-08T20:08:43.887Z,3.77
2018-07-08T20:11:13.176Z,3.90
2018-07-08T20:13:42.375Z,3.60
2018-07-08T20:16:11.604Z,3.87
2018-07-08T20:18:40.809Z,3.30
2018-07-08T20:21:10.281Z,3.70
2018-07-08T20:23:39.863Z,3.67
2018-07-08T20:26:10.052Z,3.43
2018-07-08T20:28:39.246Z,3.50
2018-07-08T20:31:08.619Z,3.70
2018-07-08T20:33:37.936Z,3.40
2018-07-08T20:36:07.304Z,3.57
2018-07-08T20:38:36.910Z,3.70
2018-07-08T20:41:06.521Z,3.73
2018-07-08T20:43:36.155Z,3.80
2018-07-08T20:46:05.456Z,3.60
2018-07-08T20:48:34.688Z,3.70
2018-07-08T20:51:03.975Z,3.77
2018-07-08T20:53:33.164Z,3.60
2018-07-08T20:56:04.267Z,3.50
2018-07-08T20:58:33.469Z,3.50
2018-07-08T21:01:04.207Z,3.60
2018-07-08T21:03:33.783Z,3.40
2018-07-08T21:06:03.013Z,3.30
2018-07-08T21:08:32.205Z,3.30
2018-07-08T21:11:01.481Z,3.20
2018-07-08T21:13:30.734Z,3.37
2018-07-08T21:15:59.984Z,3.23
2018-07-08T21:18:29.236Z,3.43
2018-07-08T21:20:58.477Z,3.40
2018-07-08T21:23:27.697Z,3.77
2018-07-08T21:25:56.932Z,3.30
2018-07-08T21:28:26.133Z,3.40
2018-07-08T21:30:55.322Z,3.57
2018-07-08T21:33:24.556Z,3.77
2018-07-08T21:35:54.276Z,3.63
2018-07-08T21:38:23.476Z,3.73
2018-07-08T21:40:52.696Z,3.80
2018-07-08T21:43:21.885Z,3.73
2018-07-08T21:45:51.130Z,3.97
2018-07-08T21:48:20.329Z,3.97
2018-07-08T21:50:49.520Z,3.40
2018-07-08T21:53:18.770Z,3.60
2018-07-08T21:55:47.947Z,3.70
2018-07-08T21:58:17.371Z,3.70
2018-07-08T22:00:57.253Z,4.20
2018-07-08T22:03:26.445Z,3.60
2018-07-08T22:05:56.125Z,3.70
2018-07-08T22:08:29.423Z,3.60
2018-07-08T22:10:58.717Z,3.90
2018-07-08T22:13:27.941Z,3.70
2018-07-08T22:15:57.140Z,3.60
2018-07-08T22:18:26.329Z,3.70
2018-07-08T22:20:56.597Z,3.87
2018-07-08T22:23:25.788Z,3.60
2018-07-08T22:25:54.996Z,3.63
2018-07-08T22:28:24.285Z,3.63
2018-07-08T22:30:53.488Z,4.13
2018-07-08T22:33:22.680Z,3.60
2018-07-08T22:35:51.910Z,4.10
2018-07-08T22:38:21.183Z,3.50
2018-07-08T22:40:50.380Z,3.60
2018-07-08T22:43:19.576Z,3.90
2018-07-08T22:45:48.776Z,4.20
2018-07-08T22:48:17.976Z,4.43
2018-07-08T22:50:47.172Z,3.57
2018-07-08T22:53:16.367Z,3.43
2018-07-08T22:55:45.564Z,3.53
2018-07-08T22:58:14.760Z,3.90
2018-07-08T23:00:54.964Z,3.83
2018-07-08T23:03:56.353Z,3.80
2018-07-08T23:06:25.548Z,3.63
2018-07-08T23:08:55.428Z,3.77
2018-07-08T23:11:25.385Z,4.10
2018-07-08T23:13:55.695Z,3.80
2018-07-08T23:16:25.708Z,3.97
2018-07-08T23:18:54.912Z,3.50
2018-07-08T23:21:24.138Z,4.20
2018-07-08T23:23:53.313Z,4.20
2018-07-08T23:26:22.505Z,3.87
2018-07-08T23:28:51.745Z,3.70
2018-07-08T23:31:21.036Z,4.23
2018-07-08T23:33:50.228Z,4.20
2018-07-08T23:36:19.424Z,4.00
2018-07-08T23:38:48.637Z,4.10
2018-07-08T23:41:18.280Z,3.93
2018-07-08T23:43:47.456Z,4.00
2018-07-08T23:46:16.107Z,4.17
2018-07-08T23:48:45.313Z,4.13
2018-07-08T23:51:14.512Z,3.90
2018-07-08T23:53:43.718Z,3.97
2018-07-08T23:56:12.915Z,4.23
2018-07-08T23:58:42.084Z,4.20
